Green River, WY

4:20 PM MDT on July 06, 2015 (GMT -0600)
College Hill | | Change Station
CLOSE
Current Station
Personal Weather Station
Location: Rock Springs, WY
Elevation: 6488 ft
Nearby Weather Stations

Elev 6488 ft 41.59 °N, 109.23 °W | Updated 14 minutes ago

Clear
Clear
73.7 °F
Feels Like 77 °F
N
2.0
Wind Variable Wind from East
Gusts 12.0 mph

Today
High -- | Low -- °F
--% Chance of Precip.
Yesterday
High -- | Low -- °F
Precip. -- in
5:50 AM 8:54 PM
Waning Gibbous, 71% visible
Pressure 30.01 in
Visibility 10.0 miles
Clouds Few 5000 ft
Heat Index 77 °F
Dew Point 53 °F
Humidity 48%
Rainfall 0.00 in
Snow Depth Not available.
UV 8 out of 12
Pollen 1.00 out of 12
Air Quality Not available.
Flu Activity Not available.
METAR KRKS 062154Z AUTO 10008KT 10SM FEW050 22/10 A3023 RMK AO2 LTG DSNT S SLP160 T02220100

More Conditions Fewer Conditions

Pressure 30.01 in
Visibility 10.0 miles
Clouds Few 5000 ft
Heat Index 77 °F
Dew Point 53 °F
Humidity 48%
Rainfall 0.00 in
Snow Depth Not available.
UV 8 out of 12
Pollen 1.00 out of 12
Air Quality Not available.
Flu Activity Not available.
METAR KRKS 062154Z AUTO 10008KT 10SM FEW050 22/10 A3023 RMK AO2 LTG DSNT S SLP160 T02220100

More Conditions Fewer Conditions

10-Day Weather Forecast

×

Almanac

Astronomy

Jul. 06, 2015 Rise Set
Actual Time
Civil Twilight
Nautical Twilight
Astronomical Twilight
Moon
Length of Visible Light
Length of Day
Tomorrow will be .
, % of the Moon is Illuminated

Today's Extremes

State Highs State Lows

Community

WunderPhotos

Upload Photos

1,835,664 photos uploaded!

WunderBlogs® & News

Nearby

Air Quality

  Air Quality AQ Index Pollutant
Not available.

Snow Depth

Station Depth Elevation

Earthquake Activity

City Distance Mag. Time & Date
Minimum magnitude displayed is 2.5.

Coastal Water Temperatures

Place Temperature

Stations

Nearby Weather Stations

Station Location Temp. Windchill Dew Point Humidity Wind Precip. Elev Updated Type